sensor_id;sensor_type;location;lat;lon;timestamp;P1;durP1;ratioP1;P2;durP2;ratioP2
26391;SDS011;14572;43.120;1.178;2023-09-19T05:16:47;4.28;;;1.10;;
26391;SDS011;14572;43.120;1.178;2023-09-19T05:19:14;6.80;;;1.48;;
26391;SDS011;14572;43.120;1.178;2023-09-19T05:21:42;1.58;;;1.05;;
26391;SDS011;14572;43.120;1.178;2023-09-19T05:24:09;3.08;;;1.13;;
26391;SDS011;14572;43.120;1.178;2023-09-19T05:26:36;1.50;;;0.85;;
26391;SDS011;14572;43.120;1.178;2023-09-19T05:29:03;6.03;;;1.33;;
26391;SDS011;14572;43.120;1.178;2023-09-19T05:31:36;3.55;;;1.05;;
26391;SDS011;14572;43.120;1.178;2023-09-19T05:34:08;2.90;;;1.05;;
26391;SDS011;14572;43.120;1.178;2023-09-19T05:36:38;4.03;;;1.20;;
26391;SDS011;14572;43.120;1.178;2023-09-19T05:39:07;2.33;;;1.10;;
26391;SDS011;14572;43.120;1.178;2023-09-19T05:41:34;2.22;;;1.10;;
26391;SDS011;14572;43.120;1.178;2023-09-19T05:44:05;3.20;;;1.08;;
26391;SDS011;14572;43.120;1.178;2023-09-19T05:46:34;4.72;;;1.20;;
26391;SDS011;14572;43.120;1.178;2023-09-19T05:49:01;2.60;;;1.20;;
26391;SDS011;14572;43.120;1.178;2023-09-19T05:51:30;5.55;;;1.30;;
26391;SDS011;14572;43.120;1.178;2023-09-19T05:53:57;3.55;;;1.20;;
26391;SDS011;14572;43.120;1.178;2023-09-19T05:56:24;3.72;;;1.30;;
26391;SDS011;14572;43.120;1.178;2023-09-19T05:58:52;2.38;;;1.23;;
26391;SDS011;14572;43.120;1.178;2023-09-19T06:01:19;6.32;;;1.10;;
26391;SDS011;14572;43.120;1.178;2023-09-19T06:03:46;7.25;;;1.20;;
26391;SDS011;14572;43.120;1.178;2023-09-19T06:06:13;2.75;;;1.10;;
26391;SDS011;14572;43.120;1.178;2023-09-19T06:08:42;4.18;;;1.05;;
26391;SDS011;14572;43.120;1.178;2023-09-19T06:11:10;4.35;;;1.30;;
26391;SDS011;14572;43.120;1.178;2023-09-19T06:13:37;3.40;;;1.25;;
26391;SDS011;14572;43.120;1.178;2023-09-19T06:16:05;1.85;;;1.00;;
26391;SDS011;14572;43.120;1.178;2023-09-19T06:18:32;4.82;;;1.30;;
26391;SDS011;14572;43.120;1.178;2023-09-19T06:21:00;2.03;;;1.00;;
26391;SDS011;14572;43.120;1.178;2023-09-19T06:23:32;3.88;;;1.42;;
26391;SDS011;14572;43.120;1.178;2023-09-19T06:26:01;4.53;;;1.20;;
26391;SDS011;14572;43.120;1.178;2023-09-19T06:28:31;1.95;;;1.25;;
26391;SDS011;14572;43.120;1.178;2023-09-19T06:30:59;3.30;;;1.27;;
26391;SDS011;14572;43.120;1.178;2023-09-19T06:33:28;3.78;;;1.27;;
26391;SDS011;14572;43.120;1.178;2023-09-19T06:35:56;4.25;;;1.23;;
26391;SDS011;14572;43.120;1.178;2023-09-19T06:38:25;4.45;;;1.17;;
26391;SDS011;14572;43.120;1.178;2023-09-19T06:40:52;5.75;;;1.20;;
26391;SDS011;14572;43.120;1.178;2023-09-19T06:43:21;4.72;;;0.80;;
26391;SDS011;14572;43.120;1.178;2023-09-19T06:45:49;4.40;;;1.08;;
26391;SDS011;14572;43.120;1.178;2023-09-19T06:48:16;0.98;;;0.80;;
26391;SDS011;14572;43.120;1.178;2023-09-19T06:50:43;4.60;;;1.42;;
26391;SDS011;14572;43.120;1.178;2023-09-19T06:53:13;3.88;;;1.20;;
26391;SDS011;14572;43.120;1.178;2023-09-19T06:55:40;3.88;;;0.98;;
26391;SDS011;14572;43.120;1.178;2023-09-19T06:58:09;2.58;;;1.13;;
26391;SDS011;14572;43.120;1.178;2023-09-19T07:00:37;4.13;;;1.13;;
26391;SDS011;14572;43.120;1.178;2023-09-19T07:03:05;1.67;;;0.90;;
26391;SDS011;14572;43.120;1.178;2023-09-19T07:05:35;1.98;;;1.02;;
26391;SDS011;14572;43.120;1.178;2023-09-19T07:08:04;5.25;;;1.30;;
26391;SDS011;14572;43.120;1.178;2023-09-19T07:10:31;4.05;;;1.20;;
26391;SDS011;14572;43.120;1.178;2023-09-19T07:12:59;6.82;;;1.50;;
26391;SDS011;14572;43.120;1.178;2023-09-19T07:15:26;5.03;;;1.25;;
26391;SDS011;14572;43.120;1.178;2023-09-19T07:17:55;3.63;;;1.50;;
26391;SDS011;14572;43.120;1.178;2023-09-19T07:20:22;4.88;;;1.73;;
26391;SDS011;14572;43.120;1.178;2023-09-19T07:22:51;5.68;;;1.70;;
26391;SDS011;14572;43.120;1.178;2023-09-19T07:25:20;3.30;;;1.45;;
26391;SDS011;14572;43.120;1.178;2023-09-19T07:27:47;4.43;;;1.33;;
26391;SDS011;14572;43.120;1.178;2023-09-19T07:30:14;2.28;;;1.08;;
26391;SDS011;14572;43.120;1.178;2023-09-19T07:32:42;3.50;;;0.98;;
26391;SDS011;14572;43.120;1.178;2023-09-19T07:35:10;2.25;;;1.10;;
26391;SDS011;14572;43.120;1.178;2023-09-19T07:37:38;4.35;;;1.17;;
26391;SDS011;14572;43.120;1.178;2023-09-19T07:40:05;2.28;;;1.10;;
26391;SDS011;14572;43.120;1.178;2023-09-19T07:42:34;5.82;;;0.80;;
26391;SDS011;14572;43.120;1.178;2023-09-19T07:45:04;1.98;;;1.00;;
26391;SDS011;14572;43.120;1.178;2023-09-19T07:47:32;2.22;;;1.13;;
26391;SDS011;14572;43.120;1.178;2023-09-19T07:50:01;1.80;;;0.82;;
26391;SDS011;14572;43.120;1.178;2023-09-19T07:52:29;1.63;;;1.08;;
26391;SDS011;14572;43.120;1.178;2023-09-19T07:54:58;2.67;;;1.30;;
26391;SDS011;14572;43.120;1.178;2023-09-19T07:57:26;3.25;;;1.15;;
26391;SDS011;14572;43.120;1.178;2023-09-19T07:59:54;2.75;;;1.20;;
26391;SDS011;14572;43.120;1.178;2023-09-19T08:02:22;2.47;;;0.77;;
26391;SDS011;14572;43.120;1.178;2023-09-19T08:04:49;3.30;;;0.90;;
26391;SDS011;14572;43.120;1.178;2023-09-19T08:07:17;3.65;;;1.30;;
26391;SDS011;14572;43.120;1.178;2023-09-19T08:09:46;1.98;;;1.00;;
26391;SDS011;14572;43.120;1.178;2023-09-19T08:12:13;1.70;;;0.82;;
26391;SDS011;14572;43.120;1.178;2023-09-19T08:14:42;2.88;;;0.90;;
26391;SDS011;14572;43.120;1.178;2023-09-19T08:17:09;2.40;;;1.13;;
26391;SDS011;14572;43.120;1.178;2023-09-19T08:19:37;2.35;;;0.90;;
26391;SDS011;14572;43.120;1.178;2023-09-19T08:22:07;4.00;;;1.10;;
26391;SDS011;14572;43.120;1.178;2023-09-19T08:24:35;2.13;;;1.00;;
26391;SDS011;14572;43.120;1.178;2023-09-19T08:27:05;3.00;;;1.00;;
26391;SDS011;14572;43.120;1.178;2023-09-19T08:29:34;4.10;;;1.08;;
26391;SDS011;14572;43.120;1.178;2023-09-19T08:32:01;3.78;;;1.15;;
26391;SDS011;14572;43.120;1.178;2023-09-19T08:34:29;3.50;;;1.20;;
26391;SDS011;14572;43.120;1.178;2023-09-19T08:36:56;4.80;;;1.20;;
26391;SDS011;14572;43.120;1.178;2023-09-19T08:39:23;3.70;;;1.10;;
26391;SDS011;14572;43.120;1.178;2023-09-19T08:41:56;3.72;;;1.50;;
26391;SDS011;14572;43.120;1.178;2023-09-19T08:44:25;2.35;;;1.40;;
26391;SDS011;14572;43.120;1.178;2023-09-19T08:46:54;2.97;;;1.40;;
26391;SDS011;14572;43.120;1.178;2023-09-19T08:49:24;2.45;;;1.40;;
26391;SDS011;14572;43.120;1.178;2023-09-19T08:51:58;5.32;;;1.88;;
26391;SDS011;14572;43.120;1.178;2023-09-19T08:54:31;3.00;;;1.63;;
26391;SDS011;14572;43.120;1.178;2023-09-19T08:57:05;3.08;;;1.42;;
26391;SDS011;14572;43.120;1.178;2023-09-19T08:59:38;2.33;;;1.60;;
26391;SDS011;14572;43.120;1.178;2023-09-19T09:02:08;3.15;;;1.73;;
26391;SDS011;14572;43.120;1.178;2023-09-19T09:04:38;2.70;;;1.90;;
26391;SDS011;14572;43.120;1.178;2023-09-19T09:07:09;2.05;;;1.70;;
26391;SDS011;14572;43.120;1.178;2023-09-19T09:09:37;4.05;;;2.00;;
26391;SDS011;14572;43.120;1.178;2023-09-19T09:12:07;4.10;;;2.00;;
26391;SDS011;14572;43.120;1.178;2023-09-19T09:14:35;6.85;;;1.73;;
26391;SDS011;14572;43.120;1.178;2023-09-19T09:17:04;3.72;;;2.05;;
26391;SDS011;14572;43.120;1.178;2023-09-19T09:19:32;4.82;;;2.00;;
26391;SDS011;14572;43.120;1.178;2023-09-19T09:22:08;2.83;;;1.95;;
26391;SDS011;14572;43.120;1.178;2023-09-19T09:24:36;4.78;;;2.05;;
26391;SDS011;14572;43.120;1.178;2023-09-19T09:27:05;3.25;;;1.83;;
26391;SDS011;14572;43.120;1.178;2023-09-19T09:29:42;2.80;;;1.70;;
26391;SDS011;14572;43.120;1.178;2023-09-19T09:32:19;2.50;;;2.10;;
26391;SDS011;14572;43.120;1.178;2023-09-19T09:34:48;4.47;;;2.17;;
26391;SDS011;14572;43.120;1.178;2023-09-19T09:37:17;4.00;;;2.00;;
26391;SDS011;14572;43.120;1.178;2023-09-19T09:39:54;2.10;;;1.90;;
26391;SDS011;14572;43.120;1.178;2023-09-19T09:42:29;3.80;;;2.10;;
26391;SDS011;14572;43.120;1.178;2023-09-19T09:45:26;2.55;;;1.98;;
26391;SDS011;14572;43.120;1.178;2023-09-19T09:48:02;7.53;;;1.80;;
26391;SDS011;14572;43.120;1.178;2023-09-19T09:50:39;2.10;;;1.95;;
26391;SDS011;14572;43.120;1.178;2023-09-19T09:53:21;3.50;;;1.58;;
26391;SDS011;14572;43.120;1.178;2023-09-19T09:55:57;2.22;;;1.70;;
26391;SDS011;14572;43.120;1.178;2023-09-19T09:58:26;3.90;;;1.70;;
26391;SDS011;14572;43.120;1.178;2023-09-19T10:00:58;3.67;;;1.67;;
26391;SDS011;14572;43.120;1.178;2023-09-19T10:03:32;2.60;;;1.60;;
26391;SDS011;14572;43.120;1.178;2023-09-19T10:06:04;2.85;;;1.75;;
26391;SDS011;14572;43.120;1.178;2023-09-19T10:08:57;3.08;;;1.80;;
26391;SDS011;14572;43.120;1.178;2023-09-19T10:11:30;3.20;;;1.65;;
26391;SDS011;14572;43.120;1.178;2023-09-19T10:13:56;4.90;;;2.08;;
26391;SDS011;14572;43.120;1.178;2023-09-19T10:16:27;2.63;;;2.15;;
26391;SDS011;14572;43.120;1.178;2023-09-19T10:18:57;8.23;;;2.15;;
26391;SDS011;14572;43.120;1.178;2023-09-19T10:21:26;4.25;;;2.03;;
26391;SDS011;14572;43.120;1.178;2023-09-19T10:23:55;3.80;;;1.98;;
26391;SDS011;14572;43.120;1.178;2023-09-19T10:26:24;2.97;;;2.13;;
26391;SDS011;14572;43.120;1.178;2023-09-19T10:28:56;3.28;;;1.77;;
26391;SDS011;14572;43.120;1.178;2023-09-19T10:31:26;3.42;;;2.15;;
26391;SDS011;14572;43.120;1.178;2023-09-19T10:34:00;4.15;;;2.22;;
26391;SDS011;14572;43.120;1.178;2023-09-19T10:36:30;3.53;;;1.80;;
26391;SDS011;14572;43.120;1.178;2023-09-19T10:39:00;4.22;;;1.90;;
26391;SDS011;14572;43.120;1.178;2023-09-19T10:41:31;2.97;;;1.88;;
26391;SDS011;14572;43.120;1.178;2023-09-19T10:44:00;2.40;;;1.90;;
26391;SDS011;14572;43.120;1.178;2023-09-19T10:46:32;1.60;;;1.50;;
26391;SDS011;14572;43.120;1.178;2023-09-19T10:48:59;2.05;;;1.85;;
26391;SDS011;14572;43.120;1.178;2023-09-19T10:51:28;2.33;;;1.98;;
26391;SDS011;14572;43.120;1.178;2023-09-19T10:53:59;3.40;;;1.80;;
26391;SDS011;14572;43.120;1.178;2023-09-19T10:56:30;4.05;;;1.83;;
26391;SDS011;14572;43.120;1.178;2023-09-19T10:59:05;3.70;;;1.90;;
26391;SDS011;14572;43.120;1.178;2023-09-19T11:01:43;3.95;;;1.92;;
26391;SDS011;14572;43.120;1.178;2023-09-19T11:04:22;4.05;;;1.88;;
26391;SDS011;14572;43.120;1.178;2023-09-19T11:06:59;2.50;;;1.70;;
26391;SDS011;14572;43.120;1.178;2023-09-19T11:09:42;5.15;;;2.25;;
26391;SDS011;14572;43.120;1.178;2023-09-19T11:12:24;4.47;;;1.80;;
26391;SDS011;14572;43.120;1.178;2023-09-19T11:24:32;2.45;;;1.80;;
26391;SDS011;14572;43.120;1.178;2023-09-19T11:27:13;4.57;;;1.60;;
26391;SDS011;14572;43.120;1.178;2023-09-19T11:29:42;4.47;;;1.83;;
26391;SDS011;14572;43.120;1.178;2023-09-19T11:32:08;4.60;;;1.88;;
26391;SDS011;14572;43.120;1.178;2023-09-19T11:34:39;3.00;;;1.70;;
26391;SDS011;14572;43.120;1.178;2023-09-19T11:40:36;3.72;;;1.90;;
26391;SDS011;14572;43.120;1.178;2023-09-19T11:46:09;2.72;;;1.77;;
26391;SDS011;14572;43.120;1.178;2023-09-19T11:48:38;3.20;;;1.80;;
26391;SDS011;14572;43.120;1.178;2023-09-19T11:51:11;5.13;;;1.80;;
26391;SDS011;14572;43.120;1.178;2023-09-19T11:53:45;4.53;;;2.17;;
26391;SDS011;14572;43.120;1.178;2023-09-19T11:56:15;3.50;;;1.77;;
26391;SDS011;14572;43.120;1.178;2023-09-19T11:58:43;4.78;;;2.00;;
26391;SDS011;14572;43.120;1.178;2023-09-19T12:01:12;4.55;;;2.08;;
26391;SDS011;14572;43.120;1.178;2023-09-19T12:03:41;7.85;;;2.38;;
26391;SDS011;14572;43.120;1.178;2023-09-19T12:06:12;3.03;;;1.85;;
26391;SDS011;14572;43.120;1.178;2023-09-19T12:08:41;2.33;;;1.90;;
26391;SDS011;14572;43.120;1.178;2023-09-19T12:11:12;4.22;;;2.00;;
26391;SDS011;14572;43.120;1.178;2023-09-19T12:13:42;3.20;;;1.98;;
26391;SDS011;14572;43.120;1.178;2023-09-19T12:16:12;2.42;;;1.90;;
26391;SDS011;14572;43.120;1.178;2023-09-19T12:18:41;3.15;;;1.92;;
26391;SDS011;14572;43.120;1.178;2023-09-19T12:21:25;3.53;;;1.90;;
26391;SDS011;14572;43.120;1.178;2023-09-19T12:24:06;4.05;;;1.90;;
26391;SDS011;14572;43.120;1.178;2023-09-19T12:26:52;3.28;;;1.92;;
26391;SDS011;14572;43.120;1.178;2023-09-19T12:29:19;2.58;;;2.10;;
26391;SDS011;14572;43.120;1.178;2023-09-19T12:31:50;3.67;;;2.00;;
26391;SDS011;14572;43.120;1.178;2023-09-19T12:34:20;2.28;;;1.65;;
26391;SDS011;14572;43.120;1.178;2023-09-19T12:36:48;2.95;;;1.98;;
26391;SDS011;14572;43.120;1.178;2023-09-19T12:39:24;2.92;;;1.80;;
26391;SDS011;14572;43.120;1.178;2023-09-19T12:41:54;4.13;;;2.08;;
26391;SDS011;14572;43.120;1.178;2023-09-19T12:44:21;5.18;;;2.13;;
26391;SDS011;14572;43.120;1.178;2023-09-19T12:46:50;3.88;;;2.10;;
26391;SDS011;14572;43.120;1.178;2023-09-19T12:49:20;2.28;;;1.77;;
26391;SDS011;14572;43.120;1.178;2023-09-19T12:51:48;2.15;;;1.90;;
26391;SDS011;14572;43.120;1.178;2023-09-19T12:54:16;4.57;;;1.95;;
26391;SDS011;14572;43.120;1.178;2023-09-19T12:56:43;1.95;;;1.75;;
26391;SDS011;14572;43.120;1.178;2023-09-19T12:59:14;5.72;;;2.08;;
26391;SDS011;14572;43.120;1.178;2023-09-19T13:01:42;3.15;;;1.98;;
26391;SDS011;14572;43.120;1.178;2023-09-19T13:04:12;2.47;;;2.10;;
26391;SDS011;14572;43.120;1.178;2023-09-19T13:06:43;2.22;;;2.03;;
26391;SDS011;14572;43.120;1.178;2023-09-19T13:09:11;1.77;;;1.63;;
26391;SDS011;14572;43.120;1.178;2023-09-19T13:11:39;3.67;;;1.70;;
26391;SDS011;14572;43.120;1.178;2023-09-19T13:14:17;3.38;;;1.55;;
26391;SDS011;14572;43.120;1.178;2023-09-19T13:16:55;3.70;;;1.88;;
26391;SDS011;14572;43.120;1.178;2023-09-19T13:25:03;1.95;;;1.70;;
26391;SDS011;14572;43.120;1.178;2023-09-19T13:27:31;2.20;;;1.95;;
26391;SDS011;14572;43.120;1.178;2023-09-19T13:30:00;2.40;;;2.10;;
26391;SDS011;14572;43.120;1.178;2023-09-19T13:32:27;4.25;;;1.95;;
26391;SDS011;14572;43.120;1.178;2023-09-19T13:34:54;3.42;;;2.00;;
26391;SDS011;14572;43.120;1.178;2023-09-19T13:37:21;4.65;;;2.28;;
26391;SDS011;14572;43.120;1.178;2023-09-19T13:39:48;2.03;;;1.70;;
26391;SDS011;14572;43.120;1.178;2023-09-19T13:42:15;2.53;;;1.83;;
26391;SDS011;14572;43.120;1.178;2023-09-19T13:44:43;3.15;;;1.60;;
26391;SDS011;14572;43.120;1.178;2023-09-19T13:47:13;5.28;;;1.90;;
26391;SDS011;14572;43.120;1.178;2023-09-19T13:49:41;3.25;;;1.75;;
26391;SDS011;14572;43.120;1.178;2023-09-19T13:52:09;3.20;;;2.10;;
26391;SDS011;14572;43.120;1.178;2023-09-19T13:54:38;1.83;;;1.55;;
26391;SDS011;14572;43.120;1.178;2023-09-19T13:57:05;4.43;;;1.80;;
26391;SDS011;14572;43.120;1.178;2023-09-19T13:59:32;1.90;;;1.75;;
26391;SDS011;14572;43.120;1.178;2023-09-19T14:01:59;2.47;;;1.70;;
26391;SDS011;14572;43.120;1.178;2023-09-19T14:04:32;4.05;;;2.08;;
26391;SDS011;14572;43.120;1.178;2023-09-19T14:06:59;3.50;;;1.90;;
26391;SDS011;14572;43.120;1.178;2023-09-19T14:09:26;2.92;;;1.83;;
26391;SDS011;14572;43.120;1.178;2023-09-19T14:11:53;2.72;;;1.73;;
26391;SDS011;14572;43.120;1.178;2023-09-19T14:14:20;2.65;;;1.90;;
26391;SDS011;14572;43.120;1.178;2023-09-19T14:16:48;2.42;;;2.00;;
26391;SDS011;14572;43.120;1.178;2023-09-19T14:19:15;3.67;;;1.65;;
26391;SDS011;14572;43.120;1.178;2023-09-19T14:21:43;4.05;;;1.85;;
26391;SDS011;14572;43.120;1.178;2023-09-19T14:24:10;1.77;;;1.50;;
26391;SDS011;14572;43.120;1.178;2023-09-19T14:26:37;3.22;;;1.67;;
26391;SDS011;14572;43.120;1.178;2023-09-19T14:29:05;5.85;;;2.05;;
26391;SDS011;14572;43.120;1.178;2023-09-19T14:31:36;2.38;;;1.50;;
26391;SDS011;14572;43.120;1.178;2023-09-19T14:34:05;3.92;;;1.70;;
26391;SDS011;14572;43.120;1.178;2023-09-19T14:36:32;1.67;;;1.45;;
26391;SDS011;14572;43.120;1.178;2023-09-19T14:39:02;2.50;;;1.92;;
26391;SDS011;14572;43.120;1.178;2023-09-19T14:41:29;3.50;;;1.88;;
26391;SDS011;14572;43.120;1.178;2023-09-19T14:43:57;3.15;;;1.58;;
26391;SDS011;14572;43.120;1.178;2023-09-19T14:46:24;3.47;;;1.80;;
26391;SDS011;14572;43.120;1.178;2023-09-19T14:48:51;2.42;;;1.73;;
26391;SDS011;14572;43.120;1.178;2023-09-19T14:51:18;4.55;;;1.80;;
26391;SDS011;14572;43.120;1.178;2023-09-19T14:53:45;2.97;;;1.90;;
26391;SDS011;14572;43.120;1.178;2023-09-19T14:56:15;1.80;;;1.70;;
26391;SDS011;14572;43.120;1.178;2023-09-19T14:58:45;3.25;;;1.77;;
26391;SDS011;14572;43.120;1.178;2023-09-19T15:01:12;1.55;;;1.40;;
26391;SDS011;14572;43.120;1.178;2023-09-19T15:03:40;4.68;;;1.60;;
26391;SDS011;14572;43.120;1.178;2023-09-19T15:06:08;3.30;;;1.45;;
26391;SDS011;14572;43.120;1.178;2023-09-19T15:08:39;5.43;;;1.90;;
26391;SDS011;14572;43.120;1.178;2023-09-19T15:11:11;2.38;;;1.52;;
26391;SDS011;14572;43.120;1.178;2023-09-19T15:13:39;2.33;;;1.50;;
26391;SDS011;14572;43.120;1.178;2023-09-19T15:16:07;1.85;;;1.60;;
26391;SDS011;14572;43.120;1.178;2023-09-19T15:18:35;2.28;;;1.77;;
26391;SDS011;14572;43.120;1.178;2023-09-19T15:21:03;4.18;;;1.55;;
26391;SDS011;14572;43.120;1.178;2023-09-19T15:23:30;1.90;;;1.52;;
26391;SDS011;14572;43.120;1.178;2023-09-19T15:25:59;2.70;;;1.63;;
26391;SDS011;14572;43.120;1.178;2023-09-19T15:28:26;2.92;;;1.73;;
26391;SDS011;14572;43.120;1.178;2023-09-19T15:31:00;3.88;;;1.70;;
26391;SDS011;14572;43.120;1.178;2023-09-19T15:33:27;4.63;;;1.70;;
26391;SDS011;14572;43.120;1.178;2023-09-19T15:36:02;5.38;;;1.65;;
26391;SDS011;14572;43.120;1.178;2023-09-19T15:38:30;1.52;;;1.40;;
26391;SDS011;14572;43.120;1.178;2023-09-19T15:40:58;2.45;;;1.70;;
26391;SDS011;14572;43.120;1.178;2023-09-19T15:43:25;2.75;;;1.42;;
26391;SDS011;14572;43.120;1.178;2023-09-19T15:45:52;2.58;;;1.50;;
26391;SDS011;14572;43.120;1.178;2023-09-19T15:48:21;1.83;;;1.42;;
26391;SDS011;14572;43.120;1.178;2023-09-19T15:50:48;2.72;;;1.65;;
26391;SDS011;14572;43.120;1.178;2023-09-19T15:53:15;2.00;;;1.30;;
26391;SDS011;14572;43.120;1.178;2023-09-19T15:55:43;2.55;;;1.80;;
26391;SDS011;14572;43.120;1.178;2023-09-19T15:58:10;3.05;;;1.70;;
26391;SDS011;14572;43.120;1.178;2023-09-19T16:00:39;2.10;;;1.50;;
26391;SDS011;14572;43.120;1.178;2023-09-19T16:03:07;1.70;;;1.60;;
26391;SDS011;14572;43.120;1.178;2023-09-19T16:05:38;3.72;;;1.92;;
26391;SDS011;14572;43.120;1.178;2023-09-19T16:08:06;4.75;;;1.95;;
26391;SDS011;14572;43.120;1.178;2023-09-19T16:10:36;3.10;;;1.60;;
26391;SDS011;14572;43.120;1.178;2023-09-19T16:13:03;1.58;;;1.40;;
26391;SDS011;14572;43.120;1.178;2023-09-19T16:15:31;2.45;;;1.73;;
26391;SDS011;14572;43.120;1.178;2023-09-19T16:17:59;3.33;;;1.65;;
26391;SDS011;14572;43.120;1.178;2023-09-19T16:20:28;2.20;;;1.75;;
26391;SDS011;14572;43.120;1.178;2023-09-19T16:22:59;4.38;;;1.83;;
26391;SDS011;14572;43.120;1.178;2023-09-19T16:25:26;2.70;;;1.95;;
26391;SDS011;14572;43.120;1.178;2023-09-19T16:27:53;3.33;;;1.90;;
26391;SDS011;14572;43.120;1.178;2023-09-19T16:30:20;4.82;;;1.70;;
26391;SDS011;14572;43.120;1.178;2023-09-19T16:32:48;5.13;;;1.83;;
26391;SDS011;14572;43.120;1.178;2023-09-19T16:35:16;3.30;;;1.80;;
26391;SDS011;14572;43.120;1.178;2023-09-19T16:37:43;1.83;;;1.58;;
26391;SDS011;14572;43.120;1.178;2023-09-19T16:40:12;5.57;;;1.80;;
26391;SDS011;14572;43.120;1.178;2023-09-19T16:42:39;2.30;;;1.65;;
26391;SDS011;14572;43.120;1.178;2023-09-19T16:45:07;1.83;;;1.60;;
26391;SDS011;14572;43.120;1.178;2023-09-19T16:47:35;2.75;;;1.90;;
26391;SDS011;14572;43.120;1.178;2023-09-19T16:50:02;3.45;;;1.50;;
26391;SDS011;14572;43.120;1.178;2023-09-19T16:52:31;2.13;;;1.50;;
26391;SDS011;14572;43.120;1.178;2023-09-19T16:54:58;4.10;;;1.70;;
26391;SDS011;14572;43.120;1.178;2023-09-19T16:57:26;2.97;;;1.60;;
26391;SDS011;14572;43.120;1.178;2023-09-19T16:59:53;2.83;;;1.88;;
26391;SDS011;14572;43.120;1.178;2023-09-19T17:02:21;2.72;;;1.52;;
26391;SDS011;14572;43.120;1.178;2023-09-19T17:04:48;3.50;;;1.65;;
26391;SDS011;14572;43.120;1.178;2023-09-19T17:07:15;5.75;;;1.50;;
26391;SDS011;14572;43.120;1.178;2023-09-19T17:09:42;1.98;;;1.50;;
26391;SDS011;14572;43.120;1.178;2023-09-19T17:12:09;2.05;;;1.55;;
26391;SDS011;14572;43.120;1.178;2023-09-19T17:14:40;2.45;;;1.48;;
26391;SDS011;14572;43.120;1.178;2023-09-19T17:17:07;3.45;;;1.42;;
26391;SDS011;14572;43.120;1.178;2023-09-19T17:19:34;3.15;;;1.77;;
26391;SDS011;14572;43.120;1.178;2023-09-19T17:22:02;2.67;;;1.70;;
26391;SDS011;14572;43.120;1.178;2023-09-19T17:24:29;2.42;;;1.70;;
26391;SDS011;14572;43.120;1.178;2023-09-19T17:26:56;3.72;;;1.90;;
26391;SDS011;14572;43.120;1.178;2023-09-19T17:29:23;3.80;;;1.70;;
26391;SDS011;14572;43.120;1.178;2023-09-19T17:31:52;2.90;;;1.65;;
26391;SDS011;14572;43.120;1.178;2023-09-19T17:34:19;2.30;;;1.70;;
26391;SDS011;14572;43.120;1.178;2023-09-19T17:36:46;2.15;;;1.50;;
26391;SDS011;14572;43.120;1.178;2023-09-19T17:39:13;1.70;;;1.42;;
26391;SDS011;14572;43.120;1.178;2023-09-19T17:41:41;5.95;;;1.40;;
26391;SDS011;14572;43.120;1.178;2023-09-19T17:44:08;3.40;;;1.50;;
26391;SDS011;14572;43.120;1.178;2023-09-19T17:46:36;4.15;;;1.52;;
26391;SDS011;14572;43.120;1.178;2023-09-19T17:49:05;1.75;;;1.55;;
26391;SDS011;14572;43.120;1.178;2023-09-19T17:51:33;3.15;;;1.50;;
26391;SDS011;14572;43.120;1.178;2023-09-19T17:54:00;2.85;;;1.42;;
26391;SDS011;14572;43.120;1.178;2023-09-19T17:56:29;2.30;;;1.30;;
26391;SDS011;14572;43.120;1.178;2023-09-19T17:58:56;2.30;;;1.50;;
26391;SDS011;14572;43.120;1.178;2023-09-19T18:01:25;4.78;;;1.52;;
26391;SDS011;14572;43.120;1.178;2023-09-19T18:03:54;3.00;;;1.70;;
26391;SDS011;14572;43.120;1.178;2023-09-19T18:06:24;2.00;;;1.40;;
26391;SDS011;14572;43.120;1.178;2023-09-19T18:08:52;2.22;;;1.58;;
26391;SDS011;14572;43.120;1.178;2023-09-19T18:11:23;3.78;;;1.40;;
26391;SDS011;14572;43.120;1.178;2023-09-19T18:13:50;3.58;;;1.42;;
26391;SDS011;14572;43.120;1.178;2023-09-19T18:16:22;2.67;;;1.60;;
26391;SDS011;14572;43.120;1.178;2023-09-19T18:18:50;1.65;;;1.50;;
26391;SDS011;14572;43.120;1.178;2023-09-19T18:21:18;3.08;;;1.75;;
26391;SDS011;14572;43.120;1.178;2023-09-19T18:23:52;6.15;;;1.70;;
26391;SDS011;14572;43.120;1.178;2023-09-19T18:26:20;2.65;;;1.40;;
26391;SDS011;14572;43.120;1.178;2023-09-19T18:28:47;3.40;;;1.60;;
26391;SDS011;14572;43.120;1.178;2023-09-19T18:31:15;3.33;;;1.60;;
26391;SDS011;14572;43.120;1.178;2023-09-19T18:33:43;4.85;;;1.45;;
26391;SDS011;14572;43.120;1.178;2023-09-19T18:36:14;3.50;;;1.50;;
26391;SDS011;14572;43.120;1.178;2023-09-19T18:38:43;1.45;;;1.20;;
26391;SDS011;14572;43.120;1.178;2023-09-19T18:41:15;1.17;;;0.80;;
26391;SDS011;14572;43.120;1.178;2023-09-19T18:43:49;3.33;;;1.20;;
26391;SDS011;14572;43.120;1.178;2023-09-19T18:46:16;3.25;;;0.95;;
26391;SDS011;14572;43.120;1.178;2023-09-19T18:48:44;3.38;;;1.30;;
26391;SDS011;14572;43.120;1.178;2023-09-19T18:51:12;3.42;;;1.02;;
26391;SDS011;14572;43.120;1.178;2023-09-19T18:53:42;4.60;;;0.80;;
26391;SDS011;14572;43.120;1.178;2023-09-19T18:56:10;2.63;;;0.98;;
26391;SDS011;14572;43.120;1.178;2023-09-19T18:58:41;3.67;;;1.10;;
26391;SDS011;14572;43.120;1.178;2023-09-19T19:01:11;2.25;;;0.80;;
26391;SDS011;14572;43.120;1.178;2023-09-19T19:03:41;6.65;;;1.30;;
26391;SDS011;14572;43.120;1.178;2023-09-19T19:06:16;2.08;;;0.90;;
26391;SDS011;14572;43.120;1.178;2023-09-19T19:08:47;3.97;;;0.90;;
26391;SDS011;14572;43.120;1.178;2023-09-19T19:11:16;3.35;;;0.90;;
26391;SDS011;14572;43.120;1.178;2023-09-19T19:13:48;8.07;;;1.05;;
26391;SDS011;14572;43.120;1.178;2023-09-19T19:16:19;2.53;;;0.80;;
26391;SDS011;14572;43.120;1.178;2023-09-19T19:18:51;4.60;;;0.90;;
26391;SDS011;14572;43.120;1.178;2023-09-19T19:21:19;1.35;;;0.80;;
26391;SDS011;14572;43.120;1.178;2023-09-19T19:23:48;4.38;;;0.80;;
26391;SDS011;14572;43.120;1.178;2023-09-19T19:26:21;2.17;;;0.93;;
26391;SDS011;14572;43.120;1.178;2023-09-19T19:28:50;5.80;;;0.80;;
26391;SDS011;14572;43.120;1.178;2023-09-19T19:31:18;1.50;;;0.60;;
26391;SDS011;14572;43.120;1.178;2023-09-19T19:33:49;2.10;;;1.02;;
26391;SDS011;14572;43.120;1.178;2023-09-19T19:36:18;1.17;;;0.70;;
26391;SDS011;14572;43.120;1.178;2023-09-19T19:38:51;2.50;;;0.80;;
26391;SDS011;14572;43.120;1.178;2023-09-19T19:41:22;2.35;;;0.90;;
26391;SDS011;14572;43.120;1.178;2023-09-19T19:43:51;3.47;;;0.85;;
26391;SDS011;14572;43.120;1.178;2023-09-19T19:46:18;2.92;;;0.80;;
26391;SDS011;14572;43.120;1.178;2023-09-19T19:48:47;3.22;;;0.77;;
26391;SDS011;14572;43.120;1.178;2023-09-19T19:51:19;1.73;;;0.88;;
26391;SDS011;14572;43.120;1.178;2023-09-19T19:53:46;7.28;;;1.35;;
26391;SDS011;14572;43.120;1.178;2023-09-19T19:56:14;1.30;;;0.80;;
26391;SDS011;14572;43.120;1.178;2023-09-19T19:58:41;2.50;;;0.65;;
26391;SDS011;14572;43.120;1.178;2023-09-19T20:01:10;1.65;;;0.90;;
26391;SDS011;14572;43.120;1.178;2023-09-19T20:03:37;5.55;;;1.15;;
26391;SDS011;14572;43.120;1.178;2023-09-19T20:06:04;3.22;;;0.90;;
26391;SDS011;14572;43.120;1.178;2023-09-19T20:08:33;3.88;;;0.88;;
26391;SDS011;14572;43.120;1.178;2023-09-19T20:11:01;2.92;;;1.00;;
26391;SDS011;14572;43.120;1.178;2023-09-19T20:13:30;4.93;;;1.20;;
26391;SDS011;14572;43.120;1.178;2023-09-19T20:15:58;4.68;;;0.85;;
26391;SDS011;14572;43.120;1.178;2023-09-19T20:18:33;1.70;;;0.77;;
26391;SDS011;14572;43.120;1.178;2023-09-19T20:21:07;3.35;;;0.88;;
26391;SDS011;14572;43.120;1.178;2023-09-19T20:23:38;2.72;;;1.10;;
26391;SDS011;14572;43.120;1.178;2023-09-19T20:26:06;1.75;;;0.77;;
26391;SDS011;14572;43.120;1.178;2023-09-19T20:28:35;3.33;;;1.10;;
26391;SDS011;14572;43.120;1.178;2023-09-19T20:31:05;2.20;;;0.93;;
26391;SDS011;14572;43.120;1.178;2023-09-19T20:33:35;6.78;;;1.10;;
26391;SDS011;14572;43.120;1.178;2023-09-19T20:36:04;3.35;;;0.88;;
26391;SDS011;14572;43.120;1.178;2023-09-19T20:38:32;1.88;;;0.90;;